createdAt,value
2017-10-13T00:09:15.738Z,13.33
2017-10-13T00:15:54.079Z,13.59
2017-10-13T04:10:10.709Z,13.33
2017-10-13T04:10:18.558Z,11.84
2017-10-13T04:10:26.693Z,11.85
2017-10-13T04:10:34.832Z,11.85
2017-10-13T04:10:42.975Z,11.83
2017-10-13T04:10:51.106Z,11.84
2017-10-13T04:10:59.250Z,11.84
2017-10-13T04:11:07.377Z,11.84
2017-10-13T04:11:15.510Z,11.84
2017-10-13T04:11:23.662Z,11.84
2017-10-13T04:11:31.807Z,11.84
2017-10-13T04:11:39.934Z,11.83
2017-10-13T04:11:48.090Z,11.83
2017-10-13T04:11:56.209Z,11.83
2017-10-13T04:12:04.346Z,11.85
2017-10-13T04:12:12.489Z,11.84
2017-10-13T04:12:20.814Z,11.83
2017-10-13T04:12:28.774Z,11.83
2017-10-13T04:12:44.650Z,11.83
2017-10-13T04:12:52.465Z,11.82
2017-10-13T04:13:00.794Z,11.82
2017-10-13T04:13:16.501Z,11.83
2017-10-13T04:13:24.501Z,11.82
2017-10-13T04:13:32.445Z,11.83
2017-10-13T04:13:49.833Z,11.82
2017-10-13T04:14:02.495Z,11.81
2017-10-13T04:14:10.114Z,11.82
2017-10-13T04:14:18.253Z,11.81
2017-10-13T04:14:26.381Z,11.82
2017-10-13T04:14:34.518Z,11.81
2017-10-13T04:14:42.658Z,11.80
2017-10-13T04:14:50.801Z,11.81
2017-10-13T04:15:04.713Z,11.82
2017-10-13T04:15:12.905Z,11.81
2017-10-13T04:15:21.044Z,11.81
2017-10-13T04:15:29.389Z,11.81
2017-10-13T04:15:50.866Z,11.80
2017-10-13T04:15:59.305Z,11.81
2017-10-13T04:16:16.525Z,11.80
2017-10-13T04:16:24.758Z,11.81
2017-10-13T04:16:33.064Z,11.80
2017-10-13T04:16:41.057Z,11.81
2017-10-13T04:16:49.013Z,11.81
2017-10-13T04:16:57.146Z,11.81
2017-10-13T04:17:05.278Z,11.81
2017-10-13T04:17:13.414Z,11.80
2017-10-13T04:17:21.557Z,11.81
2017-10-13T04:17:29.694Z,11.81
2017-10-13T04:17:37.834Z,11.82
2017-10-13T04:17:45.957Z,11.82
2017-10-13T04:17:54.370Z,11.81
2017-10-13T04:18:02.223Z,11.80
2017-10-13T04:18:16.313Z,11.81
2017-10-13T04:18:30.080Z,11.80
2017-10-13T04:18:38.317Z,11.81
2017-10-13T04:18:53.234Z,11.81
2017-10-13T04:21:53.342Z,11.81
2017-10-13T04:22:01.398Z,11.82
2017-10-13T04:22:15.785Z,11.83
2017-10-13T04:22:23.485Z,11.84
2017-10-13T04:22:31.628Z,11.83
2017-10-13T04:22:39.965Z,11.83
2017-10-13T04:22:56.726Z,11.83
2017-10-13T04:23:07.374Z,11.84
2017-10-13T04:23:25.346Z,11.83
2017-10-13T04:23:44.605Z,11.84
2017-10-13T04:23:59.131Z,11.83
2017-10-13T04:24:08.018Z,11.84
2017-10-13T04:24:19.813Z,11.83
2017-10-13T04:24:35.173Z,11.84
2017-10-13T04:24:52.872Z,11.84
2017-10-13T04:25:01.160Z,11.84
2017-10-13T04:25:09.279Z,11.85
2017-10-13T04:25:17.585Z,11.84
2017-10-13T04:25:43.058Z,11.84
2017-10-13T04:25:54.670Z,11.84
2017-10-13T04:26:12.062Z,11.84
2017-10-13T04:26:21.057Z,11.84
2017-10-13T04:26:38.921Z,11.84
2017-10-13T04:26:48.215Z,11.84
2017-10-13T04:26:57.781Z,11.84
2017-10-13T04:27:06.711Z,11.86
2017-10-13T04:27:22.237Z,11.85
2017-10-13T04:27:40.694Z,11.86
2017-10-13T04:27:48.229Z,11.85
2017-10-13T04:28:04.651Z,11.86
2017-10-13T04:28:14.454Z,11.88
2017-10-13T04:28:23.979Z,11.85
2017-10-13T04:28:32.054Z,11.85
2017-10-13T04:28:41.799Z,11.86
2017-10-13T04:28:51.628Z,11.85
2017-10-13T04:29:09.033Z,11.86
2017-10-13T04:29:16.802Z,11.86
2017-10-13T04:29:25.089Z,11.85
2017-10-13T04:29:33.106Z,11.85
2017-10-13T04:29:41.369Z,11.85
2017-10-13T04:29:49.490Z,11.85
2017-10-13T04:29:57.452Z,11.85
2017-10-13T04:30:05.594Z,11.84
2017-10-13T04:30:13.765Z,11.84
2017-10-13T04:30:22.057Z,11.86
2017-10-13T04:30:30.011Z,11.85
2017-10-13T04:30:38.318Z,11.84
2017-10-13T04:30:53.877Z,11.85
2017-10-13T04:31:02.592Z,11.85
2017-10-13T04:31:11.620Z,11.85
2017-10-13T04:31:21.370Z,11.84
2017-10-13T04:31:31.286Z,11.84
2017-10-13T04:31:40.995Z,11.85
2017-10-13T04:31:49.183Z,11.85
2017-10-13T04:31:59.183Z,11.84
2017-10-13T04:32:16.341Z,11.85
2017-10-13T04:32:24.065Z,11.84
2017-10-13T04:32:36.845Z,11.84
2017-10-13T04:32:44.898Z,11.85
2017-10-13T04:32:53.591Z,11.85
2017-10-13T04:33:08.641Z,11.85
2017-10-13T04:33:16.498Z,11.86
2017-10-13T04:33:24.821Z,11.85
2017-10-13T04:33:40.148Z,11.85
2017-10-13T04:34:01.223Z,11.86
2017-10-13T04:34:14.459Z,11.86
2017-10-13T04:34:36.058Z,11.88
2017-10-13T04:34:44.605Z,11.86
2017-10-13T04:34:55.521Z,11.87
2017-10-13T04:35:03.807Z,11.87
2017-10-13T04:35:18.530Z,11.86
2017-10-13T04:35:35.101Z,11.88
2017-10-13T04:35:43.041Z,11.88
2017-10-13T04:35:51.050Z,11.88
2017-10-13T04:35:59.193Z,11.87
2017-10-13T04:36:07.330Z,11.87
2017-10-13T04:36:15.478Z,11.88
2017-10-13T04:36:23.801Z,11.88
2017-10-13T04:36:31.746Z,11.89
2017-10-13T04:36:39.886Z,11.89
2017-10-13T04:36:48.077Z,11.89
2017-10-13T04:37:02.114Z,11.88
2017-10-13T04:37:15.078Z,11.90
2017-10-13T04:37:31.636Z,11.89
2017-10-13T04:37:46.903Z,11.89
2017-10-13T04:37:55.202Z,11.90
2017-10-13T04:38:11.111Z,11.91
2017-10-13T04:38:25.874Z,11.90
2017-10-13T04:38:41.824Z,11.90
2017-10-13T04:38:50.112Z,11.90
2017-10-13T04:39:03.460Z,11.90
2017-10-13T04:39:18.901Z,11.91
2017-10-13T04:39:27.722Z,11.91
2017-10-13T04:39:43.134Z,11.91
2017-10-13T04:39:51.498Z,11.91
2017-10-13T04:39:59.770Z,11.91
2017-10-13T04:40:14.953Z,11.96
2017-10-13T04:40:34.298Z,11.92
2017-10-13T04:44:23.927Z,11.95
2017-10-13T04:59:58.222Z,11.99
2017-10-13T05:00:39.773Z,12.08
2017-10-13T05:01:27.765Z,12.08
2017-10-13T05:04:06.233Z,12.11
2017-10-13T05:06:33.438Z,12.08
2017-10-13T05:08:17.051Z,12.07
2017-10-13T05:20:21.818Z,12.11
2017-10-13T05:21:19.518Z,12.04
2017-10-13T05:21:31.231Z,12.04
2017-10-13T05:21:49.844Z,12.05
2017-10-13T05:21:58.761Z,12.06
2017-10-13T05:22:17.902Z,12.05
2017-10-13T05:22:25.310Z,12.04
2017-10-13T05:22:45.273Z,12.05
2017-10-13T05:22:55.614Z,12.06
2017-10-13T05:23:04.093Z,12.05
2017-10-13T05:23:31.045Z,12.07
2017-10-13T05:23:46.210Z,12.07
2017-10-13T05:23:54.017Z,12.07
2017-10-13T05:24:06.909Z,12.07
2017-10-13T05:24:24.863Z,12.07
2017-10-13T05:24:42.047Z,12.08
2017-10-13T05:25:00.906Z,12.08
2017-10-13T05:25:16.859Z,12.08
2017-10-13T05:25:24.806Z,12.08
2017-10-13T05:25:43.882Z,12.09
2017-10-13T05:25:59.847Z,12.09
2017-10-13T05:26:19.805Z,12.10
2017-10-13T05:26:35.553Z,12.10
2017-10-13T05:26:43.205Z,12.10
2017-10-13T05:26:51.513Z,12.10
2017-10-13T05:27:00.042Z,12.10
2017-10-13T05:27:18.352Z,12.11
2017-10-13T05:27:32.109Z,12.12
2017-10-13T05:27:49.281Z,12.13
2017-10-13T05:28:12.117Z,12.12
2017-10-13T05:28:38.718Z,12.13
2017-10-13T05:28:52.645Z,12.13
2017-10-13T05:29:05.289Z,12.15
2017-10-13T05:29:20.882Z,12.15
2017-10-13T05:29:28.707Z,12.14
2017-10-13T05:29:44.960Z,12.13
2017-10-13T05:30:01.534Z,12.14
2017-10-13T05:30:09.934Z,12.17
2017-10-13T05:30:24.523Z,12.17
2017-10-13T05:30:45.538Z,12.17
2017-10-13T05:30:57.230Z,12.17
2017-10-13T05:31:14.520Z,12.19
2017-10-13T05:31:40.520Z,12.19
2017-10-13T05:32:00.550Z,12.18
2017-10-13T05:32:21.254Z,12.18
2017-10-13T05:32:31.389Z,12.19
2017-10-13T05:32:50.347Z,12.19
2017-10-13T05:33:11.293Z,12.20
2017-10-13T05:33:24.546Z,12.20
2017-10-13T05:33:32.762Z,12.20
2017-10-13T05:33:41.106Z,12.21
2017-10-13T05:33:55.169Z,12.21
2017-10-13T05:34:03.015Z,12.21
2017-10-13T05:34:21.114Z,12.21
2017-10-13T05:34:30.133Z,12.22
2017-10-13T05:34:38.811Z,12.21
2017-10-13T05:34:54.910Z,12.22
2017-10-13T05:35:12.631Z,12.22
2017-10-13T05:35:29.473Z,12.22
2017-10-13T05:35:37.688Z,12.25
2017-10-13T05:35:54.576Z,12.24
2017-10-13T05:36:11.738Z,12.23
2017-10-13T05:36:20.337Z,12.25
2017-10-13T05:36:28.302Z,12.25
2017-10-13T05:36:45.456Z,12.25
2017-10-13T05:36:57.243Z,12.25
2017-10-13T05:37:06.623Z,12.27
2017-10-13T05:37:21.592Z,12.27
2017-10-13T05:37:30.306Z,12.26
2017-10-13T05:37:52.522Z,12.25
2017-10-13T05:38:00.515Z,12.26
2017-10-13T05:38:08.470Z,12.26
2017-10-13T05:38:25.772Z,12.27
2017-10-13T05:39:07.654Z,12.28
2017-10-13T05:39:34.985Z,12.29
2017-10-13T05:39:57.944Z,12.31
2017-10-13T05:40:34.996Z,12.31
2017-10-13T05:40:43.741Z,12.32
2017-10-13T05:40:58.528Z,12.32
2017-10-13T05:41:07.071Z,12.32
2017-10-13T05:41:15.658Z,12.33
2017-10-13T05:41:31.220Z,12.33
2017-10-13T05:41:51.887Z,12.33
2017-10-13T05:42:07.233Z,12.35
2017-10-13T05:42:15.237Z,12.36
2017-10-13T05:42:23.192Z,12.36
2017-10-13T05:42:44.565Z,12.35
2017-10-13T05:43:01.056Z,12.36
2017-10-13T05:43:16.305Z,12.36
2017-10-13T05:43:44.294Z,12.36
2017-10-13T05:43:59.862Z,12.38
2017-10-13T05:44:08.987Z,12.37
2017-10-13T05:44:35.955Z,12.38
2017-10-13T05:45:12.272Z,12.38
2017-10-13T05:45:30.522Z,12.40
2017-10-13T05:45:51.097Z,12.41
2017-10-13T05:46:03.473Z,12.41
2017-10-13T05:46:11.485Z,12.41
2017-10-13T05:46:28.333Z,12.40
2017-10-13T05:46:41.293Z,12.42
2017-10-13T05:46:48.901Z,12.42
2017-10-13T05:46:57.598Z,12.43
2017-10-13T05:47:05.398Z,12.43
2017-10-13T05:47:26.073Z,12.43
2017-10-13T05:47:44.462Z,12.44
2017-10-13T05:47:52.461Z,12.44
2017-10-13T05:48:08.542Z,12.45
2017-10-13T05:48:25.417Z,12.45
2017-10-13T05:48:33.358Z,12.45
2017-10-13T05:48:49.318Z,12.45
2017-10-13T05:49:24.879Z,12.46
2017-10-13T05:49:39.654Z,12.47
2017-10-13T05:49:47.541Z,12.48
2017-10-13T05:49:55.496Z,12.49
2017-10-13T05:50:04.013Z,12.49
2017-10-13T05:50:20.125Z,12.49
2017-10-13T05:50:36.193Z,12.50
2017-10-13T05:50:54.449Z,12.52
2017-10-13T05:51:10.614Z,12.53
2017-10-13T05:51:29.781Z,12.51
2017-10-13T05:51:52.279Z,12.52
2017-10-13T05:52:10.621Z,12.53
2017-10-13T05:52:18.705Z,12.52
2017-10-13T05:52:34.223Z,12.54
2017-10-13T05:52:49.994Z,12.54
2017-10-13T05:52:57.617Z,12.54
2017-10-13T05:53:14.382Z,12.54
2017-10-13T05:53:22.906Z,12.55
2017-10-13T05:53:31.239Z,12.55
2017-10-13T05:53:49.625Z,12.54
2017-10-13T05:54:06.881Z,12.55
2017-10-13T05:54:15.130Z,12.57
2017-10-13T05:54:23.249Z,12.55
2017-10-13T05:54:31.586Z,12.57
2017-10-13T05:54:47.646Z,12.56
2017-10-13T05:55:06.372Z,12.57
2017-10-13T05:55:36.916Z,12.57
2017-10-13T05:55:45.890Z,12.59
2017-10-13T05:56:04.842Z,12.59
2017-10-13T05:56:19.286Z,12.60
2017-10-13T05:56:35.100Z,12.61
2017-10-13T05:56:43.818Z,12.61
2017-10-13T05:56:51.933Z,12.62
2017-10-13T05:57:00.084Z,12.61
2017-10-13T05:57:16.201Z,12.61
2017-10-13T05:57:30.863Z,12.62
2017-10-13T05:57:41.631Z,12.63
2017-10-13T05:58:00.614Z,12.63
2017-10-13T05:58:08.415Z,12.64
2017-10-13T05:58:16.370Z,12.63
2017-10-13T05:58:35.949Z,12.64
2017-10-13T05:58:49.530Z,12.64
2017-10-13T05:58:57.237Z,12.64
2017-10-13T05:59:05.394Z,12.65
2017-10-13T05:59:13.705Z,12.65
2017-10-13T05:59:21.650Z,12.65
2017-10-13T05:59:29.774Z,12.66
2017-10-13T05:59:44.661Z,12.67
2017-10-13T06:00:01.489Z,12.72
2017-10-13T06:00:11.014Z,12.67
2017-10-13T06:00:24.516Z,12.67
2017-10-13T06:00:38.727Z,12.68
2017-10-13T06:00:52.657Z,12.67
2017-10-13T06:01:07.466Z,12.68
2017-10-13T06:01:26.634Z,12.69
2017-10-13T06:01:42.982Z,12.70
2017-10-13T06:01:58.337Z,12.70
2017-10-13T06:02:18.801Z,12.70
2017-10-13T06:02:33.325Z,12.72
2017-10-13T06:02:42.498Z,12.71
2017-10-13T06:02:50.464Z,12.70
2017-10-13T06:03:12.373Z,12.72
2017-10-13T06:03:20.394Z,12.72
2017-10-13T06:03:40.609Z,12.73
2017-10-13T06:03:56.457Z,12.74
2017-10-13T06:04:04.585Z,12.76
2017-10-13T06:04:21.289Z,12.74
2017-10-13T06:04:38.478Z,12.75
2017-10-13T06:04:47.063Z,12.75
2017-10-13T06:04:56.598Z,12.75
2017-10-13T06:05:04.748Z,12.75
2017-10-13T06:05:20.110Z,12.76
2017-10-13T06:05:28.550Z,12.76
2017-10-13T06:05:36.903Z,12.77
2017-10-13T06:05:55.072Z,12.75
2017-10-13T06:06:13.592Z,12.76
2017-10-13T06:06:31.588Z,12.78
2017-10-13T06:06:43.058Z,12.80
2017-10-13T06:06:54.505Z,12.79
2017-10-13T06:07:09.526Z,12.80
2017-10-13T06:07:20.939Z,12.80
2017-10-13T06:07:35.373Z,12.80
2017-10-13T06:07:44.178Z,12.81
2017-10-13T06:07:58.892Z,12.81
2017-10-13T06:08:19.545Z,12.82
2017-10-13T06:08:38.989Z,12.83
2017-10-13T06:08:57.446Z,12.83
2017-10-13T06:09:05.969Z,12.84
2017-10-13T06:09:13.738Z,12.84
2017-10-13T06:09:25.274Z,12.84
2017-10-13T06:09:33.397Z,12.84
2017-10-13T06:09:41.350Z,12.86
2017-10-13T06:09:58.907Z,12.87
2017-10-13T06:10:06.630Z,12.87
2017-10-13T06:10:32.414Z,12.86
2017-10-13T06:10:51.686Z,12.89
2017-10-13T06:11:15.790Z,12.89
2017-10-13T06:11:25.682Z,12.89
2017-10-13T06:11:34.088Z,12.89
2017-10-13T06:11:43.418Z,12.91
2017-10-13T06:11:59.934Z,12.91
2017-10-13T06:12:07.054Z,12.92
2017-10-13T06:12:24.133Z,12.91
2017-10-13T06:12:39.108Z,12.93
2017-10-13T06:12:53.454Z,12.94
2017-10-13T06:13:02.258Z,12.94
2017-10-13T06:13:19.969Z,12.94
2017-10-13T06:13:27.624Z,12.95
2017-10-13T06:13:35.526Z,12.95
2017-10-13T06:13:43.673Z,12.95
2017-10-13T06:13:51.606Z,12.96
2017-10-13T06:13:59.741Z,12.97
2017-10-13T06:14:15.412Z,12.97
2017-10-13T06:14:23.712Z,12.98
2017-10-13T06:14:38.962Z,12.98
2017-10-13T06:14:56.906Z,13.00
2017-10-13T06:15:04.705Z,12.98
2017-10-13T06:15:23.401Z,12.99
2017-10-13T06:15:31.398Z,13.00
2017-10-13T06:15:39.742Z,13.00
2017-10-13T06:15:47.499Z,13.01
2017-10-13T06:16:06.736Z,13.01
2017-10-13T06:16:28.066Z,13.02
2017-10-13T06:16:49.801Z,13.02
2017-10-13T06:17:05.339Z,13.02
2017-10-13T06:17:15.452Z,13.03
2017-10-13T06:17:31.248Z,13.03
2017-10-13T06:17:47.852Z,13.05
2017-10-13T06:18:00.809Z,13.06
2017-10-13T06:18:16.053Z,13.06
2017-10-13T06:18:32.034Z,13.08
2017-10-13T06:18:39.854Z,13.09
2017-10-13T06:18:52.634Z,13.09
2017-10-13T06:19:00.364Z,13.10
2017-10-13T06:19:13.445Z,13.10
2017-10-13T06:19:30.113Z,13.10
2017-10-13T06:19:46.985Z,13.10
2017-10-13T06:20:01.956Z,13.12
2017-10-13T06:20:13.601Z,13.11
2017-10-13T06:20:30.669Z,13.13
2017-10-13T06:20:38.686Z,13.14
2017-10-13T06:20:46.842Z,13.15
2017-10-13T06:21:01.245Z,13.14
2017-10-13T06:21:19.857Z,13.15
2017-10-13T06:21:35.144Z,13.17
2017-10-13T06:21:45.292Z,13.18
2017-10-13T06:21:55.061Z,13.18
2017-10-13T06:22:09.009Z,13.17
2017-10-13T06:22:22.835Z,13.18
2017-10-13T06:22:30.882Z,13.20
2017-10-13T06:22:39.014Z,13.19
2017-10-13T06:22:58.273Z,13.22
2017-10-13T06:23:05.905Z,13.19
2017-10-13T06:23:23.510Z,13.20
2017-10-13T06:23:31.382Z,13.20
2017-10-13T06:23:39.337Z,13.21
2017-10-13T06:23:57.287Z,13.21
2017-10-13T06:24:18.395Z,13.22
2017-10-13T06:24:26.630Z,13.24
2017-10-13T06:24:34.746Z,13.23
2017-10-13T06:25:00.441Z,13.24
2017-10-13T06:25:07.850Z,13.25
2017-10-13T06:25:23.932Z,13.26
2017-10-13T06:25:38.510Z,13.26
2017-10-13T06:25:47.513Z,13.26
2017-10-13T06:26:02.421Z,13.26
2017-10-13T06:26:11.433Z,13.26
2017-10-13T06:26:18.966Z,13.26
2017-10-13T06:26:27.097Z,13.26
2017-10-13T06:26:41.190Z,13.27
2017-10-13T06:26:49.386Z,13.28
2017-10-13T06:26:57.533Z,13.29
2017-10-13T06:27:12.866Z,13.28
2017-10-13T06:27:23.166Z,13.30
2017-10-13T06:27:32.593Z,13.30
2017-10-13T06:27:42.378Z,13.30
2017-10-13T06:27:52.082Z,13.29
2017-10-13T06:28:02.071Z,13.30
2017-10-13T06:28:18.462Z,13.30
2017-10-13T06:28:33.778Z,13.31
2017-10-13T06:28:42.565Z,13.33
2017-10-13T06:28:58.035Z,13.31
2017-10-13T06:29:12.270Z,13.33
2017-10-13T06:29:31.485Z,13.33
2017-10-13T06:29:39.262Z,13.34
2017-10-13T06:29:57.962Z,13.37
2017-10-13T06:30:05.806Z,13.36
2017-10-13T06:30:24.975Z,13.35
2017-10-13T06:30:44.245Z,13.36
2017-10-13T06:30:51.665Z,13.38
2017-10-13T06:31:09.866Z,13.38
2017-10-13T06:31:24.313Z,13.38
2017-10-13T06:31:40.084Z,13.38
2017-10-13T06:31:48.101Z,13.40
2017-10-13T06:32:04.686Z,13.41
2017-10-13T06:32:23.662Z,13.41
2017-10-13T06:32:31.962Z,13.42
2017-10-13T06:32:51.257Z,13.43
2017-10-13T06:32:59.290Z,13.43
2017-10-13T06:33:07.233Z,13.43
2017-10-13T06:33:15.346Z,13.44
2017-10-13T06:33:33.241Z,13.45
2017-10-13T06:33:40.457Z,13.45
2017-10-13T06:33:56.546Z,13.46
2017-10-13T06:34:13.293Z,13.46
2017-10-13T06:34:28.085Z,13.47
2017-10-13T06:34:41.242Z,13.48
2017-10-13T06:34:55.178Z,13.47
2017-10-13T06:35:03.403Z,13.48
2017-10-13T06:35:18.618Z,13.48
2017-10-13T06:35:35.862Z,13.48
2017-10-13T06:35:44.095Z,13.49
2017-10-13T06:35:52.421Z,13.50
2017-10-13T06:36:04.322Z,13.51
2017-10-13T06:36:22.493Z,13.52
2017-10-13T06:36:30.091Z,13.51
2017-10-13T06:36:48.990Z,13.51
2017-10-13T06:36:57.010Z,13.51
2017-10-13T06:37:10.274Z,13.52
2017-10-13T06:37:18.910Z,13.53
2017-10-13T06:37:27.036Z,13.52
2017-10-13T06:37:35.197Z,13.53
2017-10-13T06:37:50.467Z,13.53
2017-10-13T06:38:08.700Z,13.54
2017-10-13T06:38:24.790Z,13.54
2017-10-13T06:38:33.475Z,13.54
2017-10-13T06:38:50.710Z,13.56
2017-10-13T06:38:58.519Z,13.56
2017-10-13T06:39:06.686Z,13.56
2017-10-13T06:39:14.958Z,13.56
2017-10-13T06:39:38.197Z,13.56
2017-10-13T06:39:52.237Z,13.57
2017-10-13T06:40:09.213Z,13.57
2017-10-13T06:40:25.335Z,13.60
2017-10-13T06:40:42.481Z,13.59
2017-10-13T06:41:08.625Z,13.60
2017-10-13T06:41:17.657Z,13.61
2017-10-13T06:41:33.328Z,13.61
2017-10-13T06:41:42.899Z,13.61
2017-10-13T06:41:54.766Z,13.62
2017-10-13T06:42:10.900Z,13.62
2017-10-13T06:42:26.303Z,13.63
2017-10-13T06:42:37.063Z,13.64
2017-10-13T06:43:00.109Z,13.64
2017-10-13T06:43:10.362Z,13.64
2017-10-13T06:43:24.882Z,13.66
2017-10-13T06:43:35.446Z,13.66
2017-10-13T06:43:45.434Z,13.66
2017-10-13T06:43:54.883Z,13.66
2017-10-13T06:44:06.176Z,13.67
2017-10-13T06:44:23.311Z,13.67
2017-10-13T06:44:39.445Z,13.67
2017-10-13T06:44:55.066Z,13.69
2017-10-13T06:45:11.567Z,13.69
2017-10-13T06:45:19.978Z,13.70
2017-10-13T06:45:28.293Z,13.71
2017-10-13T06:45:36.421Z,13.70
2017-10-13T06:45:51.649Z,13.70
2017-10-13T06:46:05.898Z,13.71
2017-10-13T06:46:23.970Z,13.71
2017-10-13T06:46:49.555Z,13.72
2017-10-13T06:46:58.346Z,13.73
2017-10-13T06:47:12.399Z,13.74
2017-10-13T06:47:34.426Z,13.74
2017-10-13T06:47:44.329Z,13.75
2017-10-13T06:47:56.838Z,13.75
2017-10-13T06:48:09.528Z,13.76
2017-10-13T06:48:25.984Z,13.76
2017-10-13T06:48:34.792Z,13.76
2017-10-13T06:48:44.328Z,13.77
2017-10-13T06:49:01.925Z,13.77
2017-10-13T06:49:18.598Z,13.78
2017-10-13T06:49:33.087Z,13.78
2017-10-13T06:49:41.882Z,13.80
2017-10-13T06:49:50.221Z,13.79
2017-10-13T06:49:58.544Z,13.80
2017-10-13T06:50:15.173Z,13.80
2017-10-13T06:50:32.426Z,13.81
2017-10-13T06:50:48.490Z,13.82
2017-10-13T06:50:57.856Z,13.83
2017-10-13T06:51:14.888Z,13.81
2017-10-13T06:51:45.353Z,13.83
2017-10-13T06:51:53.232Z,13.84
2017-10-13T06:52:06.962Z,13.83
2017-10-13T06:52:26.301Z,13.83
2017-10-13T06:52:43.902Z,13.83
2017-10-13T06:53:03.477Z,13.84
2017-10-13T06:53:26.221Z,13.86
2017-10-13T06:53:42.570Z,13.86
2017-10-13T06:53:58.045Z,13.86
2017-10-13T06:54:13.922Z,13.86
2017-10-13T06:54:21.922Z,13.87
2017-10-13T06:54:30.274Z,13.87
2017-10-13T06:54:53.658Z,13.89
2017-10-13T06:55:01.774Z,13.88
2017-10-13T06:55:09.873Z,13.88
2017-10-13T06:55:24.200Z,13.87
2017-10-13T06:55:47.001Z,13.88
2017-10-13T06:56:02.864Z,13.88
2017-10-13T06:56:12.046Z,13.89
2017-10-13T06:56:28.721Z,13.90
2017-10-13T06:56:44.997Z,13.89
2017-10-13T06:57:06.690Z,13.89
2017-10-13T06:57:15.562Z,13.91
2017-10-13T06:57:23.709Z,13.89
2017-10-13T06:57:44.374Z,13.90
2017-10-13T06:57:59.862Z,13.92
2017-10-13T06:58:21.606Z,13.92
2017-10-13T06:58:31.430Z,13.94
2017-10-13T06:58:41.304Z,13.93
2017-10-13T06:58:57.814Z,13.93
2017-10-13T06:59:06.437Z,13.93
2017-10-13T06:59:53.393Z,13.94
2017-10-13T07:00:02.971Z,13.94
2017-10-13T07:00:13.790Z,13.94
2017-10-13T07:00:24.012Z,13.95
2017-10-13T07:00:45.001Z,13.95
2017-10-13T07:01:07.810Z,13.96
2017-10-13T07:01:20.862Z,13.96
2017-10-13T07:01:31.722Z,13.97
2017-10-13T07:01:40.014Z,13.97
2017-10-13T07:01:47.757Z,13.96
2017-10-13T07:01:55.906Z,13.97
2017-10-13T07:02:14.501Z,13.97
2017-10-13T07:02:22.823Z,13.99
2017-10-13T07:02:43.690Z,13.99
2017-10-13T07:02:51.504Z,13.99
2017-10-13T07:02:59.822Z,14.02
2017-10-13T07:03:28.223Z,14.00
2017-10-13T07:03:52.700Z,14.00
2017-10-13T07:04:01.281Z,14.02
2017-10-13T07:04:09.238Z,14.01
2017-10-13T07:04:17.378Z,14.00
2017-10-13T07:04:44.161Z,14.00
2017-10-13T07:04:59.237Z,14.02
2017-10-13T07:05:26.542Z,14.02
2017-10-13T07:05:54.673Z,14.01
2017-10-13T07:06:03.184Z,14.03
2017-10-13T07:06:19.071Z,14.05
2017-10-13T07:06:37.653Z,14.04
2017-10-13T07:07:03.709Z,14.04
2017-10-13T07:07:21.392Z,14.04
2017-10-13T07:07:29.574Z,14.06
2017-10-13T07:07:47.477Z,14.06
2017-10-13T07:08:00.132Z,14.07
2017-10-13T07:08:14.711Z,14.04
2017-10-13T07:08:31.583Z,14.08
2017-10-13T07:08:39.986Z,14.09
2017-10-13T07:09:03.887Z,14.10
2017-10-13T07:09:11.675Z,14.10
2017-10-13T07:09:28.354Z,14.11
2017-10-13T07:09:38.622Z,14.08
2017-10-13T07:10:10.774Z,14.12
2017-10-13T07:10:21.330Z,14.12
2017-10-13T07:10:42.301Z,14.13
2017-10-13T07:10:50.007Z,14.15
2017-10-13T07:11:07.765Z,14.14
2017-10-13T07:11:25.673Z,14.17
2017-10-13T07:11:53.730Z,14.16
2017-10-13T07:12:02.266Z,14.18
2017-10-13T07:12:16.336Z,14.18
2017-10-13T07:12:31.118Z,14.20
2017-10-13T07:12:45.541Z,14.19
2017-10-13T07:13:09.454Z,14.20
2017-10-13T07:13:27.405Z,14.19
2017-10-13T07:13:44.385Z,14.21
2017-10-13T07:13:51.969Z,14.22
2017-10-13T07:14:09.866Z,14.21
2017-10-13T07:14:17.291Z,14.23
2017-10-13T07:14:25.582Z,14.22
2017-10-13T07:14:34.958Z,14.23
2017-10-13T07:14:59.761Z,14.23
2017-10-13T07:15:22.696Z,14.24
2017-10-13T07:15:33.862Z,14.23
2017-10-13T07:15:47.306Z,14.25
2017-10-13T07:16:02.655Z,14.24
2017-10-13T07:16:19.564Z,14.25
2017-10-13T07:16:40.246Z,14.26
2017-10-13T07:16:50.106Z,14.27
2017-10-13T07:17:02.793Z,14.28
2017-10-13T07:17:21.269Z,14.28
2017-10-13T07:17:45.774Z,14.29
2017-10-13T07:18:00.805Z,14.29
2017-10-13T07:18:17.386Z,14.29
2017-10-13T07:18:35.745Z,14.30
2017-10-13T07:18:43.142Z,14.32
2017-10-13T07:18:59.038Z,14.31
2017-10-13T07:19:25.510Z,14.32
2017-10-13T07:19:43.363Z,14.33
2017-10-13T07:19:58.517Z,14.33
2017-10-13T07:20:12.106Z,14.34
2017-10-13T07:20:28.457Z,14.35
2017-10-13T07:20:46.437Z,14.34
2017-10-13T07:21:02.395Z,14.36
2017-10-13T07:21:22.329Z,14.35
2017-10-13T07:21:33.684Z,14.36
2017-10-13T07:21:44.438Z,14.36
2017-10-13T07:21:53.609Z,14.36
2017-10-13T07:22:03.253Z,14.36
2017-10-13T07:22:12.796Z,14.37
2017-10-13T07:22:27.282Z,14.36
2017-10-13T07:22:36.519Z,14.37
2017-10-13T07:22:49.782Z,14.38
2017-10-13T07:22:59.018Z,14.38
2017-10-13T07:23:24.306Z,14.39
2017-10-13T07:23:32.230Z,14.41
2017-10-13T07:23:40.562Z,14.40
2017-10-13T07:23:55.945Z,14.40
2017-10-13T07:24:17.011Z,14.41
2017-10-13T07:24:26.059Z,14.43
2017-10-13T07:24:34.589Z,14.43
2017-10-13T07:24:50.798Z,14.43
2017-10-13T07:25:03.221Z,14.43
2017-10-13T07:25:13.825Z,14.43
2017-10-13T07:25:29.326Z,14.45
2017-10-13T07:25:46.193Z,14.45
2017-10-13T07:25:57.617Z,14.45
2017-10-13T07:26:16.596Z,14.46
2017-10-13T07:26:24.418Z,14.47
2017-10-13T07:26:54.807Z,14.48
2017-10-13T07:27:02.903Z,14.48
2017-10-13T07:27:17.780Z,14.48
2017-10-13T07:27:32.970Z,14.48
2017-10-13T07:27:40.194Z,14.49
2017-10-13T07:27:48.305Z,14.49
2017-10-13T07:28:03.214Z,14.51
2017-10-13T07:28:13.158Z,14.51
2017-10-13T07:28:31.142Z,14.51
2017-10-13T07:28:42.022Z,14.52
2017-10-13T07:28:52.075Z,14.53
2017-10-13T07:29:00.392Z,14.53
2017-10-13T07:29:17.677Z,14.52
2017-10-13T07:29:31.570Z,14.53
2017-10-13T07:29:39.454Z,14.53
2017-10-13T07:29:47.593Z,14.53
2017-10-13T07:30:11.132Z,14.56
2017-10-13T07:30:20.822Z,14.58
2017-10-13T07:30:29.294Z,14.56
2017-10-13T07:30:40.613Z,14.57
2017-10-13T07:30:50.823Z,14.58
2017-10-13T07:31:00.001Z,14.60
2017-10-13T07:31:17.874Z,14.58
2017-10-13T07:31:35.961Z,14.59
2017-10-13T07:31:57.067Z,14.61
2017-10-13T07:32:06.106Z,14.61
2017-10-13T07:32:20.605Z,14.61
2017-10-13T07:32:39.759Z,14.62
2017-10-13T07:32:51.014Z,14.63
2017-10-13T07:33:10.853Z,14.63
2017-10-13T07:33:28.734Z,14.63
2017-10-13T07:33:36.345Z,14.65
2017-10-13T07:33:44.468Z,14.64
2017-10-13T07:34:02.367Z,14.64
2017-10-13T07:34:19.820Z,14.66
2017-10-13T07:34:28.803Z,14.66
2017-10-13T07:34:45.446Z,14.67
2017-10-13T07:35:02.402Z,14.67
2017-10-13T07:35:18.786Z,14.67
2017-10-13T07:35:32.317Z,14.68
2017-10-13T07:35:49.296Z,14.67
2017-10-13T07:36:05.845Z,14.69
2017-10-13T07:36:18.342Z,14.71
2017-10-13T07:36:34.193Z,14.70
2017-10-13T07:36:42.614Z,14.71
2017-10-13T07:36:50.772Z,14.71
2017-10-13T07:37:10.021Z,14.72
2017-10-13T07:37:35.602Z,14.72
2017-10-13T07:37:51.769Z,14.74
2017-10-13T07:38:05.110Z,14.73
2017-10-13T07:38:12.738Z,14.74
2017-10-13T07:38:30.441Z,14.75
2017-10-13T07:38:42.425Z,14.74
2017-10-13T07:38:50.209Z,14.76
2017-10-13T07:38:58.357Z,14.76
2017-10-13T07:39:15.549Z,14.75
2017-10-13T07:39:53.229Z,14.76
2017-10-13T07:40:13.570Z,14.77
2017-10-13T07:40:35.853Z,14.78
2017-10-13T07:40:49.502Z,14.78
2017-10-13T07:40:58.112Z,14.80
2017-10-13T07:41:06.222Z,14.79
2017-10-13T07:41:23.953Z,14.79
2017-10-13T07:41:31.364Z,14.81
2017-10-13T07:41:47.026Z,14.80
2017-10-13T07:42:03.486Z,14.81
2017-10-13T07:42:21.073Z,14.82
2017-10-13T07:42:38.745Z,14.83
2017-10-13T07:42:56.149Z,14.83
2017-10-13T07:43:12.483Z,14.84
2017-10-13T07:43:25.458Z,14.84
2017-10-13T07:44:01.008Z,14.85
2017-10-13T07:44:09.630Z,14.88
2017-10-13T07:44:31.577Z,14.87
2017-10-13T07:44:57.298Z,14.89
2017-10-13T07:45:15.055Z,14.90
2017-10-13T07:45:29.209Z,14.91
2017-10-13T07:45:57.690Z,14.91
2017-10-13T07:46:16.362Z,14.93
2017-10-13T07:46:30.826Z,14.94
2017-10-13T07:46:40.447Z,14.94